Sea Fate — 3FNV5 — position and weather

sailwx.info

Track history (hours):
 
Tides and Currents Weather Stations Pressure Air Temp Water Temp Dewpoint Dewpoint Depression Visibility Wind Speed Wind Dir Waves Ship Positions

Sea Fate

Last reported at 2017-Mar-21 07:29 UTC. Time now 2017-Mar-28 12:01 UTC.
Position N 35°03' E 129°17'.

Length 152 m; draft 5.4 m.

Type: Cargo ship. MMSI: 354167000.

Date/timePositionNaut miles runAvg speedWind from/ knotsBaromVisibWave heightAir tempDewpointWater temp
2017-Mar-21 07:29N 35°03' E 129°17'427 9.2
2017-Mar-19 09:04N 31°02' E 122°17'510.4
2017-Mar-19 08:33N 31°03' E 122°10'10 9.9
2017-Mar-19 07:33N 31°06' E 121°59'9 8.7
2017-Mar-19 06:33N 31°10' E 121°51'9 9.3
2017-Mar-19 05:33N 31°18' E 121°44'1110.7
2017-Mar-19 04:33N 31°24' E 121°33'8 7.7
2017-Mar-19 03:33N 31°29' E 121°26'1111.2
2017-Mar-19 02:33N 31°36' E 121°17'6 4.2
2017-Mar-19 01:07N 31°40' E 121°11'0 0.0
2017-Mar-19 00:22N 31°40' E 121°11'0 0.0
2017-Mar-18 23:31N 31°40' E 121°11'0 0.0
2017-Mar-18 22:31N 31°40' E 121°11'0 0.0
2017-Mar-18 21:31N 31°40' E 121°11'0 0.0
2017-Mar-18 20:25N 31°40' E 121°11'0 0.0
2017-Mar-18 19:28N 31°40' E 121°11'0 0.0
2017-Mar-18 18:04N 31°40' E 121°11'0 0.0
2017-Mar-18 13:32N 31°40' E 121°11'0 0.0
2017-Mar-18 06:19N 31°40' E 121°11'0 0.0
2017-Mar-18 05:28N 31°40' E 121°11'0 0.0
2017-Mar-18 04:31N 31°40' E 121°11'0 0.0
2017-Mar-18 01:31N 31°40' E 121°11'0 0.0
2017-Mar-17 19:25N 31°40' E 121°11'0 0.0
2017-Mar-17 18:25N 31°40' E 121°11'0 0.0
2017-Mar-17 12:13N 31°40' E 121°11'0 0.0
2017-Mar-17 11:25N 31°40' E 121°11'0 0.0
2017-Mar-17 09:31N 31°40' E 121°11'0 0.0
2017-Mar-17 04:13N 31°40' E 121°11'0 0.0
2017-Mar-17 03:31N 31°40' E 121°11'0 0.0
2017-Mar-16 21:25N 31°40' E 121°11'0 0.0
2017-Mar-16 08:34N 31°40' E 121°12'8 7.8
2017-Mar-16 07:33N 31°35' E 121°19'0 0.1
2017-Mar-16 06:28N 31°35' E 121°19'0 0.0
2017-Mar-16 05:25N 31°35' E 121°19'0 0.2
2017-Mar-16 04:19N 31°35' E 121°19'0 0.0
2017-Mar-16 03:28N 31°35' E 121°19'0 0.0
2017-Mar-16 02:31N 31°35' E 121°19'0 0.0
2017-Mar-16 01:31N 31°35' E 121°19'0 0.0
2017-Mar-16 00:19N 31°35' E 121°19'0 0.1
2017-Mar-15 23:31N 31°35' E 121°19'0 0.0
2017-Mar-15 22:31N 31°35' E 121°19'0 0.2
2017-Mar-15 21:31N 31°35' E 121°19'0 0.1
2017-Mar-15 20:33N 31°35' E 121°19'8 7.8
2017-Mar-15 19:34N 31°30' E 121°26'9 8.5
2017-Mar-15 18:34N 31°24' E 121°33'8 8.1
2017-Mar-15 17:33N 31°20' E 121°41'1110.9
2017-Mar-15 16:34N 31°16' E 121°53'1211.7
2017-Mar-15 15:33N 31°13' E 122°06'1211.9
2017-Mar-15 14:33N 31°06' E 122°18'  
Track history (hours):
 
Tides and Currents Weather Stations Pressure Air Temp Water Temp Dewpoint Dewpoint Depression Visibility Wind Speed Wind Dir Waves Ship Positions

Sea Fate

Last reported at 2017-Mar-21 07:29 UTC. Time now 2017-Mar-28 12:01 UTC.
Position N 35°03' E 129°17'.

Length 152 m; draft 5.4 m.

Type: Cargo ship. MMSI: 354167000.

Date/timePositionNaut miles runAvg speedWind from/ knotsBaromVisibWave heightAir tempDewpointWater temp
2017-Mar-21 07:29N 35°03' E 129°17'427 9.2
2017-Mar-19 09:04N 31°02' E 122°17'510.4
2017-Mar-19 08:33N 31°03' E 122°10'10 9.9
2017-Mar-19 07:33N 31°06' E 121°59'9 8.7
2017-Mar-19 06:33N 31°10' E 121°51'9 9.3
2017-Mar-19 05:33N 31°18' E 121°44'1110.7
2017-Mar-19 04:33N 31°24' E 121°33'8 7.7
2017-Mar-19 03:33N 31°29' E 121°26'1111.2
2017-Mar-19 02:33N 31°36' E 121°17'6 4.2
2017-Mar-19 01:07N 31°40' E 121°11'0 0.0
2017-Mar-19 00:22N 31°40' E 121°11'0 0.0
2017-Mar-18 23:31N 31°40' E 121°11'0 0.0
2017-Mar-18 22:31N 31°40' E 121°11'0 0.0
2017-Mar-18 21:31N 31°40' E 121°11'0 0.0
2017-Mar-18 20:25N 31°40' E 121°11'0 0.0
2017-Mar-18 19:28N 31°40' E 121°11'0 0.0
2017-Mar-18 18:04N 31°40' E 121°11'0 0.0
2017-Mar-18 13:32N 31°40' E 121°11'0 0.0
2017-Mar-18 06:19N 31°40' E 121°11'0 0.0
2017-Mar-18 05:28N 31°40' E 121°11'0 0.0
2017-Mar-18 04:31N 31°40' E 121°11'0 0.0
2017-Mar-18 01:31N 31°40' E 121°11'0 0.0
2017-Mar-17 19:25N 31°40' E 121°11'0 0.0
2017-Mar-17 18:25N 31°40' E 121°11'0 0.0
2017-Mar-17 12:13N 31°40' E 121°11'0 0.0
2017-Mar-17 11:25N 31°40' E 121°11'0 0.0
2017-Mar-17 09:31N 31°40' E 121°11'0 0.0
2017-Mar-17 04:13N 31°40' E 121°11'0 0.0
2017-Mar-17 03:31N 31°40' E 121°11'0 0.0
2017-Mar-16 21:25N 31°40' E 121°11'0 0.0
2017-Mar-16 08:34N 31°40' E 121°12'8 7.8
2017-Mar-16 07:33N 31°35' E 121°19'0 0.1
2017-Mar-16 06:28N 31°35' E 121°19'0 0.0
2017-Mar-16 05:25N 31°35' E 121°19'0 0.2
2017-Mar-16 04:19N 31°35' E 121°19'0 0.0
2017-Mar-16 03:28N 31°35' E 121°19'0 0.0
2017-Mar-16 02:31N 31°35' E 121°19'0 0.0
2017-Mar-16 01:31N 31°35' E 121°19'0 0.0
2017-Mar-16 00:19N 31°35' E 121°19'0 0.1
2017-Mar-15 23:31N 31°35' E 121°19'0 0.0
2017-Mar-15 22:31N 31°35' E 121°19'0 0.2
2017-Mar-15 21:31N 31°35' E 121°19'0 0.1
2017-Mar-15 20:33N 31°35' E 121°19'8 7.8
2017-Mar-15 19:34N 31°30' E 121°26'9 8.5
2017-Mar-15 18:34N 31°24' E 121°33'8 8.1
2017-Mar-15 17:33N 31°20' E 121°41'1110.9
2017-Mar-15 16:34N 31°16' E 121°53'1211.7
2017-Mar-15 15:33N 31°13' E 122°06'1211.9
2017-Mar-15 14:33N 31°06' E 122°18'  

Dump ship's entire track history